Details From LFRK - Caen Carpiquet
To EGLC - London City
Flight Number -
Tags generated
Created
Modified
Stats Distance 141 nm / 262 km
Max Altitude 11,400 ft / 3,475 m
Waypoints 3
Social Downloads 8
Likes 0
Share VATSIM

Download

Looking for another format? Having issues loading an existing format? Contact us
Advertisement - Login to hide

Notes

Basic altitude profile: - Ascent Rate: 2500ft/min - Ascent Speed: 250kts - Cruise Altitude: 35000ft - Cruise Speed: 420kts - Descent Rate: 1500ft/min - Descent Speed: 250kts

Route

LFRK CAMRA EGLC

ID Type Via Altitude Latitude Longitude Leg Dist Tot Dist Heading (true) Name
O LFRK APT - 0 ft / 0 m 49.17512˚ -0.45194˚ - 0 nm - Caen Carpiquet
CAMRA FIX - 11,400 ft / 3,475 m 50.62361˚ -0.10694˚ 88 nm 88 nm 9° / 9° -
O EGLC APT - 0 ft / 0 m 51.50523˚ 0.05518˚ 53 nm 141 nm 7° / 7° London City

Altitude Profile

Advertisement - Login to hide

LFRK

Details ICAO LFRK (CFR)
Name Caen Carpiquet
Region France
Timezone Europe/Paris (UTC+2.0)
Stats Elevation 256 ft / 78 m (AMSL)
Location 49.175122° -0.451941°
Runways 2
Magnetic Variation 0.261° W

METAR

LFRK 211500Z AUTO 01009KT 330V040 CAVOK 19/13 Q1013 TEMPO SHRA SCT040CB

Decode

TAF

Not found

Departure Runways

ID Width Length Bearing (true) Bearing (mag) Surface Threshold Offset Overrun Length
06 98 ft / 30 m 3,880 ft / 1,183 m 51.68° 51.94° Asphalt 0 ft / 0 m 0 ft / 0 m
13 148 ft / 45 m 6,215 ft / 1,894 m 125.34° 125.60° Asphalt 984 ft / 300 m 0 ft / 0 m
24 98 ft / 30 m 3,880 ft / 1,183 m 231.69° 231.95° Asphalt 0 ft / 0 m 0 ft / 0 m
31 148 ft / 45 m 6,215 ft / 1,894 m 305.36° 305.62° Asphalt 0 ft / 0 m 0 ft / 0 m

EGLC

Details ICAO EGLC (LCY)
Name London City
Region United Kingdom
Timezone Europe/London (UTC+1.0)
Stats Elevation 19 ft / 6 m (AMSL)
Location 51.505231° 0.055175°
Runways 1
Magnetic Variation 0.321° W

METAR

EGLC 211450Z AUTO 06006KT 020V100 9999 NCD 20/12 Q1014

Decode

TAF

Not found

Destination Runways

ID Width Length Bearing (true) Bearing (mag) Surface Threshold Offset Overrun Length
09 98 ft / 30 m 4,931 ft / 1,503 m 92.89° 93.21° Concrete 322 ft / 98 m 164 ft / 50 m
27 98 ft / 30 m 4,931 ft / 1,503 m 272.91° 273.23° Concrete 243 ft / 74 m 279 ft / 85 m

Approach Navaids

Runway Type Ident Frequency Range Bearing (true) Bearing (mag) Slope Elevation
09 Localiser ILST 111.15 MHz 18 nm / 33 km 92.91° 93.23° - 19 ft / 6 m (AMSL)
09 Glidescope ILST 111.15 MHz 10 nm / 19 km 92.90° 93.22° 5.05° 35 ft / 11 m (AMSL)
09 DME ILST 111.15 MHz 18 nm / 33 km - - - 48 ft / 15 m (AMSL)
27 Localiser ILSR 111.15 MHz 18 nm / 33 km 272.89° 273.21° - 19 ft / 6 m (AMSL)
27 Glidescope ILSR 111.15 MHz 10 nm / 19 km 272.90° 273.22° 5.50° 35 ft / 11 m (AMSL)
27 DME ILSR 111.15 MHz 18 nm / 33 km - - - 48 ft / 15 m (AMSL)

Popular Alternatives